Fairport, NY

11:31 AM EDT on July 25, 2016 (GMT -0400)
White Brook | | Change Station

Elev 531 ft 43.07 °N, 77.39 °W | Updated 374 days ago

Cloudy
Cloudy
84 °F
Feels Like 90 °F
N
16
Wind Variable Wind from WSW
Gusts 23 mph

Today
High -- | Low -- °F
--% Chance of Precip.
Yesterday
High -- | Low -- °F
Precip. -- in
Pressure 29.88 in
Visibility 10.0 miles
Clouds Scattered Clouds 4400 ft
Scattered Clouds 7500 ft
Mostly Cloudy 9000 ft
Overcast 20000 ft
Heat Index 90 °F
Dew Point 71 °F
Humidity 65%
Rainfall in
Snow Depth Not available.
5:53 AM 8:38 PM
Waning Gibbous, 65% visible
METAR KROC 251454Z 21010KT 10SM -RA SCT044 SCT075 BKN090 OVC200 23/21 A2988 RMK AO2 TSE33 SLP118 P0004 60017 T02280211 58005
Pressure 29.88 in
Visibility 10.0 miles
Clouds Scattered Clouds 4400 ft
Scattered Clouds 7500 ft
Mostly Cloudy 9000 ft
Overcast 20000 ft
Heat Index 90 °F
Dew Point 71 °F
Humidity 65%
Rainfall in
Snow Depth Not available.
5:53 AM 8:38 PM
Waning Gibbous, 65% visible
METAR KROC 251454Z 21010KT 10SM -RA SCT044 SCT075 BKN090 OVC200 23/21 A2988 RMK AO2 TSE33 SLP118 P0004 60017 T02280211 58005

10-Day Weather Forecast

Almanac

Astronomy

Jul. 25, 2016 Rise Set
Actual Time
Civil Twilight
Nautical Twilight
Astronomical Twilight
Moon
Length of Visible Light
Length of Day
Tomorrow will be .
, % of the Moon is Illuminated

Today's Extremes

State Highs State Lows

Community

WunderPhotos

Upload Photos

1,927,319 photos uploaded!

WunderBlog® & News

Nearby

Air Quality

  Air Quality AQ Index Pollutant
Not available.

Snow Depth

Station Depth Elevation

Earthquake Activity

City Distance Mag. Time & Date
Minimum magnitude displayed is 2.5.

Coastal Water Temperatures

Place Temperature

Stations

Nearby Weather Stations

Station Location Temp. Windchill Dew Point Humidity Wind Precip. Elev Updated Type
                   

Watches & Warnings

There are currently no watches in effect.